Kamloops Airport
CYKA : now visible

Airfield :











YOU CAN JOIN US ON...

 
LOGIN :

Register | Disclaimer

   EN    FR    IT 

 









Legend :    VFR   Marginal VFR   IFR   Intensive IFR   Very Intensive IFR
Visi :
Ceiling :
>= 8 km
>= 3000ft
5 to 8 km
1000 to 3000 ft
1500m to 5 km
500 to 1000 ft
800 to 1500m
200 to 500 ft
< 800m
< 200 ft
Symbols :   Thunderstorms  Fog  Heavy snow  Heavy precipitations  Wind > 20 kt






- Airport Elevation : 1133 ft
- IATA code : YKA


CYKA - Kamloops

CURRENT METAR :
  • 130400Z 04007KT 020V080 40SM FEW120 SCT270 21/05 A2989 RMK AC1CI2 SLP123 DENSITY ALT 2100FT

EXPIRED METARs :
  • 130300Z 18013G19KT 40SM FEW090 SCT270 22/05 A2986 RMK AC2CI1 SLP113 DENSITY ALT 2300FT
  • 130200Z 16014KT 40SM SCT100 23/05 A2985 RMK AC4 SLP111 DENSITY ALT 2500FT

TAF TAF CYKA
Valid from the 13 at 01:00 until the 13 at 13:00 UTC


130038Z 1301/1313 12010KT P6SM FEW100
BECMG 1303/1305 VRB03KT
FM131100 VRB03KT P6SM BKN140 RMK NXT FCST BY 130700Z
CZVR FIR / North America



MET'MAP, your aeronautical weather chart ! - Copyright ORBIFLY December 2007 - Disclaimer

ORBIFLY MET'MAP TEAM :

Programming & Development : Alexandra Zaïnal
Concept & original design : Baudouin d'Aumeries
Assistance for programming : Marc-Olivier Méhu
Technical & hardware support : Manuel Goepfert

Contact : metmap@orbifly.com




SOURCES & CREDITS :

   NOAA       Earth
Advisory